Time;durP1;ratioP1;P1;durP2;ratioP2;P2;SDS_P1;SDS_P2;PMS_P1;PMS_P2;Temp;Humidity;BMP_temperature;BMP_pressure;BME280_temperature;BME280_humidity;BME280_pressure;Samples;Min_cycle;Max_cycle;Signal;HPM_P1;HPM_P2
2021/11/13 00:00:45;;;;;;;32.50;22.30;;;;;;;4.31;91.34;100636.38;5072384;28;20105;-68
2021/11/13 00:03:12;;;;;;;32.53;21.05;;;;;;;4.43;91.66;100650.16;5072228;28;20135;-68
2021/11/13 00:05:39;;;;;;;33.03;22.10;;;;;;;4.38;91.48;100660.06;5071960;28;20049;-69
2021/11/13 00:08:06;;;;;;;33.10;22.33;;;;;;;4.48;91.81;100660.19;5071867;28;20302;-69
2021/11/13 00:10:34;;;;;;;34.08;22.83;;;;;;;4.52;91.99;100661.59;5072731;28;20064;-70
2021/11/13 00:13:05;;;;;;;32.45;21.73;;;;;;;4.60;91.33;100670.47;5072226;28;20052;-69
2021/11/13 00:15:32;;;;;;;28.98;19.42;;;;;;;4.61;90.47;100666.94;5072409;28;20048;-70
2021/11/13 00:18:00;;;;;;;28.88;20.33;;;;;;;4.62;89.77;100667.75;5071912;28;20053;-70
2021/11/13 00:20:27;;;;;;;30.88;20.15;;;;;;;4.61;89.82;100660.91;5072207;28;20465;-69
2021/11/13 00:22:54;;;;;;;30.02;19.88;;;;;;;4.70;89.35;100664.56;5071807;28;20110;-71
2021/11/13 00:25:22;;;;;;;32.45;20.67;;;;;;;4.66;89.77;100659.63;5071686;28;20056;-69
2021/11/13 00:27:50;;;;;;;26.70;18.92;;;;;;;4.65;89.16;100644.19;5071559;28;20149;-69
2021/11/13 00:30:18;;;;;;;28.17;19.35;;;;;;;4.59;89.28;100644.66;5072015;28;20052;-69
2021/11/13 00:32:45;;;;;;;32.65;19.40;;;;;;;4.54;89.35;100647.59;5071651;28;20117;-69
2021/11/13 00:35:13;;;;;;;31.05;20.52;;;;;;;4.53;89.61;100645.13;5071897;28;20521;-69
2021/11/13 00:37:40;;;;;;;29.13;19.08;;;;;;;4.57;89.21;100651.72;5071555;28;20088;-71
2021/11/13 00:40:09;;;;;;;28.65;18.90;;;;;;;4.58;89.34;100658.56;5071201;28;20495;-71
2021/11/13 00:42:36;;;;;;;28.05;18.92;;;;;;;4.51;89.20;100647.00;5071383;28;20044;-70
2021/11/13 00:45:05;;;;;;;27.95;18.17;;;;;;;4.53;89.33;100639.94;5071636;28;20053;-69
2021/11/13 00:47:32;;;;;;;30.13;19.20;;;;;;;4.52;89.59;100628.75;5071278;28;20515;-70
2021/11/13 00:49:59;;;;;;;28.45;18.60;;;;;;;4.52;88.66;100631.34;5071312;28;20603;-69
2021/11/13 00:52:26;;;;;;;30.80;19.92;;;;;;;4.53;89.42;100635.59;5071267;28;20419;-69
2021/11/13 00:54:53;;;;;;;28.75;19.17;;;;;;;4.48;89.79;100644.66;5071427;28;20080;-68
2021/11/13 00:57:19;;;;;;;30.50;18.58;;;;;;;4.49;89.76;100633.34;5071241;28;20105;-69
2021/11/13 00:59:46;;;;;;;32.60;19.48;;;;;;;4.48;89.82;100636.88;5071325;28;20514;-69
2021/11/13 01:02:15;;;;;;;28.48;18.27;;;;;;;4.48;89.99;100631.69;5071128;28;20044;-69
2021/11/13 01:04:42;;;;;;;29.42;20.55;;;;;;;4.41;90.00;100635.69;5071429;28;20121;-69
2021/11/13 01:07:12;;;;;;;29.23;21.30;;;;;;;4.37;90.32;100644.63;5071453;28;20048;-69
2021/11/13 01:09:39;;;;;;;29.35;18.98;;;;;;;4.33;90.35;100631.91;5071203;28;20194;-69
2021/11/13 01:12:06;;;;;;;25.90;18.45;;;;;;;4.33;90.29;100634.50;5071516;28;20148;-69
2021/11/13 01:14:40;;;;;;;27.48;20.33;;;;;;;4.33;90.52;100639.66;5071430;28;20102;-69
2021/11/13 01:17:07;;;;;;;28.50;19.73;;;;;;;4.42;90.44;100638.16;5071372;28;20079;-69
2021/11/13 01:19:35;;;;;;;32.13;20.02;;;;;;;4.47;90.18;100628.28;5070799;28;20046;-69
2021/11/13 01:22:02;;;;;;;26.00;18.55;;;;;;;4.56;89.45;100629.34;5071396;28;20080;-69
2021/11/13 01:24:30;;;;;;;28.90;18.98;;;;;;;4.57;90.31;100628.41;5071014;28;20131;-69
2021/11/13 01:26:56;;;;;;;29.05;19.15;;;;;;;4.59;89.91;100621.34;5071455;28;20247;-70
2021/11/13 01:29:23;;;;;;;27.55;19.05;;;;;;;4.62;89.65;100623.69;5071224;28;20742;-69
2021/11/13 01:31:50;;;;;;;30.05;19.92;;;;;;;4.72;90.02;100622.03;5071222;28;20051;-70
2021/11/13 01:34:16;;;;;;;28.60;19.27;;;;;;;4.78;89.57;100608.59;5071486;28;20048;-69
2021/11/13 01:36:44;;;;;;;31.05;19.50;;;;;;;4.87;89.64;100600.09;5078095;28;20059;-68
2021/11/13 01:39:11;;;;;;;32.88;20.67;;;;;;;4.90;89.87;100597.25;5071674;28;20476;-68
2021/11/13 01:41:38;;;;;;;28.80;20.85;;;;;;;4.95;89.78;100589.13;5071977;28;20052;-69
2021/11/13 01:44:06;;;;;;;28.35;19.40;;;;;;;4.97;89.81;100595.00;5071521;28;20048;-69
2021/11/13 01:46:33;;;;;;;27.73;19.42;;;;;;;4.96;89.69;100583.00;5073081;28;20068;-69
2021/11/13 01:48:59;;;;;;;28.67;19.33;;;;;;;5.06;89.17;100585.69;5073823;28;20106;-69
2021/11/13 01:51:28;;;;;;;25.65;18.17;;;;;;;5.00;89.36;100574.84;5071011;28;20490;-69
2021/11/13 01:54:00;;;;;;;30.73;18.45;;;;;;;5.01;89.55;100567.91;5070833;28;20091;-69
2021/11/13 01:56:27;;;;;;;28.08;18.88;;;;;;;5.06;89.37;100564.94;5070798;28;20135;-70
2021/11/13 01:58:56;;;;;;;28.15;18.73;;;;;;;5.10;89.52;100563.75;5070583;28;20388;-68
2021/11/13 02:01:23;;;;;;;28.38;18.98;;;;;;;5.14;89.77;100552.19;5070262;28;20502;-69
2021/11/13 02:03:52;;;;;;;27.70;20.10;;;;;;;5.18;89.50;100556.19;5070595;28;20407;-69
2021/11/13 02:06:21;;;;;;;33.33;20.90;;;;;;;5.22;89.58;100544.59;5070507;28;20053;-70
2021/11/13 02:08:49;;;;;;;29.80;19.50;;;;;;;5.28;89.36;100544.09;5070576;28;20052;-70
2021/11/13 02:11:20;;;;;;;30.13;19.80;;;;;;;5.21;89.97;100533.38;5070731;28;20052;-70
2021/11/13 02:13:47;;;;;;;27.83;19.30;;;;;;;5.13;90.17;100534.97;5072604;28;20102;-70
2021/11/13 02:16:13;;;;;;;29.83;19.33;;;;;;;5.07;89.80;100530.28;5074485;28;20052;-69
2021/11/13 02:18:41;;;;;;;26.85;18.63;;;;;;;5.03;90.27;100536.66;5074096;28;20076;-70
2021/11/13 02:21:10;;;;;;;29.23;19.30;;;;;;;5.04;89.01;100530.53;5074267;28;20057;-69
2021/11/13 02:23:38;;;;;;;29.45;20.08;;;;;;;5.04;89.53;100522.75;5073948;28;20040;-70
2021/11/13 02:26:05;;;;;;;31.52;20.25;;;;;;;5.06;89.70;100528.63;5073874;28;20102;-71
2021/11/13 02:28:35;;;;;;;27.52;18.95;;;;;;;5.05;89.61;100522.63;5073460;28;20048;-70
2021/11/13 02:31:06;;;;;;;30.70;19.73;;;;;;;5.09;89.86;100520.59;5074161;28;20056;-70
2021/11/13 02:33:32;;;;;;;28.88;19.80;;;;;;;5.06;89.52;100519.06;5073959;28;20076;-70
2021/11/13 02:35:59;;;;;;;29.60;19.13;;;;;;;5.06;89.42;100518.25;5073777;28;20049;-70
2021/11/13 02:38:32;;;;;;;27.77;19.00;;;;;;;5.07;89.33;100514.72;5073560;28;20080;-70
2021/11/13 02:40:59;;;;;;;;;;;;;;;5.11;89.44;100510.94;5074093;28;20063;-70
2021/11/13 02:43:29;;;;;;;28.42;18.98;;;;;;;5.22;89.86;100509.09;5073623;28;19956;-70
2021/11/13 02:45:58;;;;;;;34.28;20.52;;;;;;;5.29;90.17;100510.25;5073551;28;20102;-70
2021/11/13 02:48:27;;;;;;;33.13;22.38;;;;;;;5.45;90.16;100509.00;5073492;28;20419;-70
2021/11/13 02:50:55;;;;;;;35.38;22.38;;;;;;;5.60;90.24;100507.75;5073640;28;20044;-71
2021/11/13 02:53:24;;;;;;;33.20;21.13;;;;;;;5.75;89.95;100514.22;5073406;28;20449;-71
2021/11/13 02:55:54;;;;;;;33.85;21.90;;;;;;;5.83;89.68;100503.22;5073443;28;20044;-70
2021/11/13 02:58:22;;;;;;;33.20;21.98;;;;;;;5.87;89.84;100500.22;5073657;28;20465;-71
2021/11/13 03:00:50;;;;;;;31.90;21.98;;;;;;;5.87;89.70;100495.03;5073601;28;20052;-69
2021/11/13 03:03:17;;;;;;;34.72;23.60;;;;;;;5.89;89.67;100493.16;5073444;28;20110;-70
2021/11/13 03:05:47;;;;;;;32.75;21.20;;;;;;;5.99;89.99;100482.81;5073542;28;20131;-70
2021/11/13 03:08:21;;;;;;;34.53;21.38;;;;;;;5.96;90.07;100472.69;5073394;28;20056;-70
2021/11/13 03:10:47;;;;;;;32.72;21.45;;;;;;;5.98;90.46;100476.81;5073547;28;20110;-70
2021/11/13 03:13:16;;;;;;;32.15;21.92;;;;;;;6.01;90.39;100483.53;5073407;28;20110;-70
2021/11/13 03:15:42;;;;;;;34.10;21.50;;;;;;;6.10;90.67;100476.72;5073119;28;20053;-71
2021/11/13 03:18:09;;;;;;;34.28;22.70;;;;;;;6.07;90.59;100485.59;5072580;28;20595;-72
2021/11/13 03:20:36;;;;;;;34.47;22.30;;;;;;;6.13;90.37;100479.88;5072803;28;20072;-71
2021/11/13 03:23:03;;;;;;;35.70;23.27;;;;;;;6.18;89.96;100482.88;5072886;28;20453;-72
2021/11/13 03:25:36;;;;;;;34.50;22.77;;;;;;;6.19;90.32;100484.53;5081780;22;20487;-68
2021/11/13 03:28:05;;;;;;;34.40;23.42;;;;;;;6.16;90.36;100484.78;5052930;28;20047;-66
2021/11/13 03:30:34;;;;;;;32.58;22.38;;;;;;;6.16;90.78;100490.00;5052954;28;20418;-66
2021/11/13 03:33:00;;;;;;;37.08;22.95;;;;;;;6.12;91.05;100478.25;5053367;28;20053;-66
2021/11/13 03:35:31;;;;;;;37.33;23.10;;;;;;;6.19;91.08;100487.13;5053178;28;20056;-65
2021/11/13 03:38:00;;;;;;;33.67;21.88;;;;;;;6.11;91.04;100487.00;5052897;28;20053;-66
2021/11/13 03:40:28;;;;;;;40.83;24.23;;;;;;;6.09;91.48;100482.88;5053217;28;20048;-66
2021/11/13 03:42:55;;;;;;;36.85;23.52;;;;;;;6.07;92.21;100489.97;5052965;28;20136;-66
2021/11/13 03:45:22;;;;;;;40.50;24.00;;;;;;;6.02;93.33;100487.78;5052781;28;20568;-67
2021/11/13 03:47:50;;;;;;;36.20;24.33;;;;;;;5.98;94.11;100487.19;5052685;28;20469;-66
2021/11/13 03:50:17;;;;;;;38.85;25.17;;;;;;;5.90;94.52;100489.63;5052679;28;20053;-66
2021/11/13 03:52:44;;;;;;;42.55;24.98;;;;;;;5.90;94.92;100476.63;5052712;28;20087;-65
2021/11/13 03:55:11;;;;;;;40.22;27.05;;;;;;;5.87;95.44;100489.84;5052684;28;20048;-65
2021/11/13 03:57:38;;;;;;;46.03;25.92;;;;;;;5.84;95.45;100489.28;5052380;28;20048;-66
2021/11/13 04:00:07;;;;;;;47.20;25.48;;;;;;;5.83;96.06;100492.81;5052450;28;20091;-66
2021/11/13 04:02:34;;;;;;;46.83;27.67;;;;;;;5.84;96.68;100491.88;5052272;28;20053;-66
2021/11/13 04:05:03;;;;;;;49.75;28.73;;;;;;;5.79;96.62;100494.84;5052106;28;20541;-66
2021/11/13 04:07:30;;;;;;;47.25;27.90;;;;;;;5.79;96.75;100486.25;5052362;28;20048;-66
2021/11/13 04:09:56;;;;;;;48.90;27.58;;;;;;;5.77;97.24;100482.94;5052488;28;20045;-65
2021/11/13 04:12:23;;;;;;;49.15;30.15;;;;;;;5.73;97.35;100487.56;5052498;28;20048;-65
2021/11/13 04:14:50;;;;;;;48.97;29.30;;;;;;;5.70;97.67;100487.00;5052464;28;20118;-65
2021/11/13 04:17:17;;;;;;;53.72;31.65;;;;;;;5.67;97.82;100483.72;5047141;28;20052;-66
2021/11/13 04:19:43;;;;;;;55.83;29.88;;;;;;;5.71;97.81;100489.47;5036618;28;20053;-66
2021/11/13 04:22:12;;;;;;;54.63;30.20;;;;;;;5.69;98.06;100491.38;5031751;28;20042;-66
2021/11/13 04:24:38;;;;;;;58.90;31.85;;;;;;;5.69;98.37;100481.00;5030932;28;20077;-65
2021/11/13 04:27:06;;;;;;;56.20;30.92;;;;;;;5.65;98.22;100483.06;5018684;28;20155;-65
2021/11/13 04:29:53;;;;;;;57.28;32.10;;;;;;;5.63;98.37;100482.34;5011482;28;20124;-66
2021/11/13 04:32:20;;;;;;;60.20;32.28;;;;;;;5.63;98.15;100481.53;5011846;28;20045;-65
2021/11/13 04:34:51;;;;;;;59.92;32.10;;;;;;;5.61;98.59;100481.66;5010983;28;20057;-66
2021/11/13 04:37:20;;;;;;;60.97;32.00;;;;;;;5.60;98.24;100486.97;5024711;28;20495;-65
2021/11/13 04:39:48;;;;;;;61.80;33.50;;;;;;;5.61;98.64;100475.66;5031037;28;20063;-65
2021/11/13 04:42:16;;;;;;;64.78;33.10;;;;;;;5.60;98.22;100486.97;5031228;28;20057;-65
2021/11/13 04:44:44;;;;;;;65.80;34.25;;;;;;;5.58;98.23;100484.50;5030800;28;20045;-65
2021/11/13 04:47:11;;;;;;;64.85;34.20;;;;;;;5.60;98.56;100480.00;5018283;28;20050;-65
2021/11/13 04:49:40;;;;;;;65.97;35.28;;;;;;;5.55;98.51;100474.38;5010878;28;20050;-65
2021/11/13 04:52:08;;;;;;;68.25;35.60;;;;;;;5.54;98.50;100470.13;5011525;28;20049;-65
2021/11/13 04:54:37;;;;;;;71.40;34.80;;;;;;;5.54;98.52;100464.94;5011301;28;20136;-65
2021/11/13 04:57:09;;;;;;;74.72;36.00;;;;;;;5.57;98.92;100471.66;5010859;28;20050;-65
2021/11/13 04:59:36;;;;;;;67.13;34.88;;;;;;;5.58;98.66;100465.50;5011421;28;20058;-66
2021/11/13 05:02:03;;;;;;;71.35;36.30;;;;;;;5.58;98.80;100468.09;5011041;28;20081;-65
2021/11/13 05:04:30;;;;;;;69.05;35.22;;;;;;;5.59;98.79;100470.56;5020991;28;20041;-65
2021/11/13 05:06:57;;;;;;;68.97;36.22;;;;;;;5.58;98.85;100476.72;5019308;28;20093;-65
2021/11/13 05:09:24;;;;;;;67.40;36.03;;;;;;;5.60;98.54;100477.41;5011139;28;20054;-65
2021/11/13 05:11:52;;;;;;;68.03;35.28;;;;;;;5.57;98.67;100471.66;5011017;28;20054;-66
2021/11/13 05:14:19;;;;;;;69.30;36.25;;;;;;;5.56;98.61;100478.63;5014927;28;20084;-66
2021/11/13 05:16:45;;;;;;;73.82;37.95;;;;;;;5.55;99.25;100468.38;5014464;28;20108;-65
2021/11/13 05:19:12;;;;;;;73.25;36.72;;;;;;;5.58;99.03;100479.31;5029750;28;20080;-65
2021/11/13 05:21:39;;;;;;;74.68;37.35;;;;;;;5.56;98.62;100476.03;5031142;28;20461;-65
2021/11/13 05:24:06;;;;;;;76.28;39.33;;;;;;;5.57;99.38;100475.06;5030838;28;20163;-65
2021/11/13 05:26:33;;;;;;;75.97;37.25;;;;;;;5.57;98.62;100475.06;5022551;28;20041;-66
2021/11/13 05:29:02;;;;;;;73.30;36.08;;;;;;;5.58;98.64;100484.50;5010852;28;20145;-67
2021/11/13 05:31:29;;;;;;;76.45;37.03;;;;;;;5.60;99.02;100479.19;5010921;28;20050;-66
2021/11/13 05:33:56;;;;;;;70.20;37.03;;;;;;;5.59;98.61;100486.16;5011108;28;20376;-66
2021/11/13 05:36:24;;;;;;;72.13;36.80;;;;;;;5.61;98.86;100494.63;4992077;28;20080;-66
2021/11/13 05:38:50;;;;;;;68.60;35.83;;;;;;;5.64;99.17;100499.56;5010533;28;20104;-66
2021/11/13 05:41:17;;;;;;;69.40;36.05;;;;;;;5.67;98.49;100496.69;5012056;28;20049;-67
2021/11/13 05:43:44;;;;;;;68.60;35.50;;;;;;;5.64;99.04;100493.56;5011970;28;20504;-66
2021/11/13 05:46:12;;;;;;;67.85;36.00;;;;;;;5.70;99.04;100494.78;5011930;28;20054;-66
2021/11/13 05:48:39;;;;;;;69.78;35.80;;;;;;;5.71;98.65;100493.84;5014981;28;20309;-67
2021/11/13 05:51:05;;;;;;;75.72;35.38;;;;;;;5.74;98.41;100493.59;5015631;28;20481;-66
2021/11/13 05:53:32;;;;;;;69.80;35.60;;;;;;;5.75;98.88;100490.03;5015539;28;20062;-66
2021/11/13 05:55:59;;;;;;;64.82;33.95;;;;;;;5.77;98.80;100491.56;5015396;28;20104;-67
2021/11/13 05:58:26;;;;;;;65.10;33.28;;;;;;;5.75;98.78;100490.03;5015389;28;20053;-65
2021/11/13 06:00:53;;;;;;;75.43;37.35;;;;;;;5.76;97.95;100491.69;5015167;28;20050;-66
2021/11/13 06:03:21;;;;;;;73.90;36.78;;;;;;;5.77;98.82;100498.53;5015546;28;20050;-66
2021/11/13 06:05:48;;;;;;;64.85;34.65;;;;;;;5.75;98.67;100490.88;5015062;28;20459;-66
2021/11/13 06:08:14;;;;;;;70.00;35.67;;;;;;;5.77;99.22;100501.13;5014911;28;20082;-66
2021/11/13 06:10:41;;;;;;;66.65;33.85;;;;;;;5.77;98.74;100490.75;5015175;28;20108;-66
2021/11/13 06:13:08;;;;;;;68.78;34.25;;;;;;;5.81;98.76;100489.53;5015076;28;20046;-66
2021/11/13 06:15:35;;;;;;;81.05;37.40;;;;;;;5.83;98.66;100498.03;5015014;28;20601;-67
2021/11/13 06:18:02;;;;;;;67.55;36.13;;;;;;;5.85;99.00;100509.09;5014537;28;20057;-67
2021/11/13 06:20:30;;;;;;;65.35;34.17;;;;;;;5.90;99.38;100505.19;5014728;28;20061;-67
2021/11/13 06:22:57;;;;;;;71.25;34.03;;;;;;;5.89;99.10;100515.72;5015068;28;20154;-67
2021/11/13 06:25:24;;;;;;;64.88;34.53;;;;;;;5.90;99.04;100505.19;5014450;28;20435;-67
2021/11/13 06:27:51;;;;;;;63.83;35.28;;;;;;;5.94;99.05;100505.78;5014491;28;20515;-67
2021/11/13 06:30:19;;;;;;;71.45;33.45;;;;;;;5.97;99.16;100510.72;5014792;28;20104;-67
2021/11/13 06:32:47;;;;;;;70.18;34.05;;;;;;;6.02;99.24;100512.91;5014778;28;20045;-67
2021/11/13 06:35:15;;;;;;;67.68;33.65;;;;;;;6.01;98.94;100512.09;5014699;28;20093;-66
2021/11/13 06:37:43;;;;;;;69.03;34.58;;;;;;;6.01;99.33;100509.50;5014477;28;20120;-66
2021/11/13 06:40:12;;;;;;;64.28;32.72;;;;;;;6.10;99.49;100510.50;5014710;28;20511;-66
2021/11/13 06:42:39;;;;;;;68.00;33.03;;;;;;;6.15;99.25;100509.13;5014312;28;20408;-66
2021/11/13 06:45:09;;;;;;;69.45;34.30;;;;;;;6.09;99.23;100509.69;5014518;28;20099;-66
2021/11/13 06:47:36;;;;;;;65.40;32.78;;;;;;;6.07;99.68;100510.75;5014151;28;20141;-66
2021/11/13 06:50:04;;;;;;;68.97;33.97;;;;;;;6.10;99.20;100506.13;5014022;28;20054;-66
2021/11/13 06:52:31;;;;;;;64.03;34.63;;;;;;;6.09;98.99;100506.25;5014062;28;20524;-66
2021/11/13 06:54:59;;;;;;;76.57;35.70;;;;;;;6.09;99.42;100514.06;5014348;28;20058;-66
2021/11/13 06:57:26;;;;;;;67.55;33.33;;;;;;;6.12;99.27;100519.81;5014277;28;20123;-67
2021/11/13 06:59:53;;;;;;;73.25;35.40;;;;;;;6.19;99.08;100514.88;5013697;28;20077;-66
2021/11/13 07:02:20;;;;;;;64.43;33.50;;;;;;;6.21;99.04;100521.59;5014166;28;20053;-65
2021/11/13 07:04:47;;;;;;;69.22;33.55;;;;;;;6.25;99.12;100528.19;5013829;28;20050;-69
2021/11/13 07:07:14;;;;;;;59.45;31.60;;;;;;;6.29;98.94;100532.16;5013800;28;20081;-65
2021/11/13 07:09:40;;;;;;;62.30;32.47;;;;;;;6.33;98.59;100528.34;5013879;28;20070;-65
2021/11/13 07:12:09;;;;;;;67.13;31.20;;;;;;;6.31;98.31;100537.22;5013875;28;20084;-65
2021/11/13 07:14:36;;;;;;;59.05;31.75;;;;;;;6.25;98.94;100540.34;5013958;28;20504;-65
2021/11/13 07:17:03;;;;;;;63.65;32.67;;;;;;;6.25;98.78;100535.16;5013711;28;20050;-66
2021/11/13 07:19:30;;;;;;;58.72;31.85;;;;;;;6.25;98.88;100530.78;5013551;28;20076;-66
2021/11/13 07:21:57;;;;;;;62.15;32.60;;;;;;;6.26;98.39;100537.63;5013735;28;20100;-65
2021/11/13 07:24:24;;;;;;;62.85;31.02;;;;;;;6.29;98.59;100542.56;5013531;28;20077;-65
2021/11/13 07:26:53;;;;;;;56.88;30.60;;;;;;;6.30;99.00;100539.00;5013313;28;20068;-66
2021/11/13 07:29:23;;;;;;;55.83;30.98;;;;;;;6.36;98.88;100536.84;5013538;28;20542;-66
2021/11/13 07:31:50;;;;;;;51.83;28.92;;;;;;;6.39;98.78;100537.41;5013564;28;20056;-66
2021/11/13 07:34:17;;;;;;;52.70;27.95;;;;;;;6.43;98.61;100543.16;5013670;28;20049;-66
2021/11/13 07:36:44;;;;;;;49.03;27.17;;;;;;;6.50;98.62;100549.50;5013232;28;20542;-65
2021/11/13 07:39:11;;;;;;;49.00;27.05;;;;;;;6.51;98.70;100558.94;5013188;28;20467;-66
2021/11/13 07:41:37;;;;;;;49.30;25.85;;;;;;;6.54;98.89;100546.50;5013384;28;20108;-66
2021/11/13 07:44:05;;;;;;;52.47;26.33;;;;;;;6.56;98.75;100551.56;5013448;28;20065;-66
2021/11/13 07:46:34;;;;;;;48.40;25.42;;;;;;;6.56;98.46;100560.19;5012835;28;20050;-66
2021/11/13 07:49:01;;;;;;;47.03;26.45;;;;;;;6.56;98.52;100559.38;5013297;28;20104;-66
2021/11/13 07:51:28;;;;;;;53.42;26.23;;;;;;;6.54;98.72;100567.28;5013245;28;20065;-66
2021/11/13 07:53:54;;;;;;;53.72;28.67;;;;;;;6.50;98.83;100567.69;5013144;28;20116;-66
2021/11/13 07:56:21;;;;;;;49.90;28.15;;;;;;;6.45;98.84;100567.25;5012814;28;20554;-66
2021/11/13 07:58:48;;;;;;;50.28;27.45;;;;;;;6.46;98.83;100568.91;5012738;28;20309;-66
2021/11/13 08:01:15;;;;;;;54.53;29.05;;;;;;;6.45;98.87;100572.44;5012884;28;20486;-66
2021/11/13 08:03:43;;;;;;;52.33;28.42;;;;;;;6.43;98.61;100574.34;5012858;28;20054;-67
2021/11/13 08:06:09;;;;;;;57.05;28.15;;;;;;;6.46;98.81;100574.09;5012782;28;20108;-64
2021/11/13 08:08:36;;;;;;;51.55;27.35;;;;;;;6.49;98.91;100569.47;5012708;28;20058;-67
2021/11/13 08:11:03;;;;;;;54.33;27.75;;;;;;;6.52;98.91;100573.56;5012290;28;20519;-67
2021/11/13 08:13:30;;;;;;;55.33;28.95;;;;;;;6.57;98.96;100576.59;5012691;28;20056;-70
2021/11/13 08:15:57;;;;;;;48.65;27.02;;;;;;;6.69;98.88;100572.94;5012453;28;20478;-67
2021/11/13 08:18:24;;;;;;;45.20;26.48;;;;;;;6.64;98.93;100578.53;5012182;28;20085;-67
2021/11/13 08:20:53;;;;;;;44.92;26.77;;;;;;;6.77;98.56;100567.91;5012694;28;20058;-68
2021/11/13 08:23:20;;;;;;;44.38;24.70;;;;;;;6.85;98.81;100580.25;5012431;28;20420;-65
2021/11/13 08:25:48;;;;;;;45.28;24.73;;;;;;;7.01;98.42;100584.94;5012267;28;20050;-67
2021/11/13 08:28:15;;;;;;;37.33;22.15;;;;;;;7.02;98.54;100581.38;5012317;28;20050;-67
2021/11/13 08:30:42;;;;;;;45.47;24.38;;;;;;;7.09;98.21;100577.28;5012292;28;20049;-66
2021/11/13 08:33:09;;;;;;;36.97;22.08;;;;;;;7.09;98.35;100566.88;5012657;28;20065;-65
2021/11/13 08:35:36;;;;;;;38.75;21.83;;;;;;;7.12;98.69;100577.00;5012419;28;20045;-67
2021/11/13 08:38:05;;;;;;;41.08;21.50;;;;;;;7.15;98.71;100571.53;5011970;28;20081;-66
2021/11/13 08:40:32;;;;;;;33.05;19.70;;;;;;;7.19;98.49;100573.72;5012316;28;20054;-66
2021/11/13 08:42:59;;;;;;;32.08;19.42;;;;;;;7.33;98.72;100578.53;5012342;28;20056;-67
2021/11/13 08:45:26;;;;;;;27.45;19.08;;;;;;;7.40;98.71;100573.59;5012445;28;20500;-67
2021/11/13 08:47:53;;;;;;;31.45;17.88;;;;;;;7.41;98.33;100577.84;5012788;28;20140;-67
2021/11/13 08:50:23;;;;;;;28.13;16.20;;;;;;;7.43;98.52;100577.72;5012115;28;20137;-67
2021/11/13 08:52:52;;;;;;;25.08;15.43;;;;;;;7.61;98.32;100579.47;5012216;28;20053;-69
2021/11/13 08:55:22;;;;;;;22.65;16.02;;;;;;;7.64;98.22;100571.38;5012364;28;20050;-64
2021/11/13 08:57:50;;;;;;;27.27;17.40;;;;;;;7.72;98.28;100581.13;5012248;28;20076;-66
2021/11/13 09:00:20;;;;;;;38.72;16.08;;;;;;;7.72;98.15;100575.09;5012423;28;20057;-65
2021/11/13 09:02:47;;;;;;;26.55;15.00;;;;;;;7.83;98.04;100582.75;5012095;28;20503;-67
2021/11/13 09:05:14;;;;;;;22.10;14.15;;;;;;;7.88;97.96;100577.94;5011933;28;20111;-65
2021/11/13 09:07:42;;;;;;;17.75;11.40;;;;;;;7.88;97.93;100583.16;5011518;28;20050;-65
2021/11/13 09:10:10;;;;;;;16.45;11.50;;;;;;;7.98;97.83;100583.97;5012014;28;20058;-66
2021/11/13 09:12:38;;;;;;;18.55;11.82;;;;;;;8.02;97.84;100576.69;5012000;28;20058;-66
2021/11/13 09:15:10;;;;;;;14.82;10.50;;;;;;;8.06;97.85;100581.47;5011427;28;20140;-67
2021/11/13 09:17:37;;;;;;;11.85;7.95;;;;;;;8.18;97.79;100592.53;5011768;28;20078;-66
2021/11/13 09:20:05;;;;;;;9.77;6.57;;;;;;;8.15;97.61;100585.81;5011725;28;20479;-66
2021/11/13 09:22:32;;;;;;;8.23;6.63;;;;;;;8.20;97.48;100588.84;5013512;28;20058;-67
2021/11/13 09:25:07;;;;;;;8.52;6.20;;;;;;;8.26;97.35;100590.88;5015885;28;20094;-67
2021/11/13 09:27:34;;;;;;;7.70;5.28;;;;;;;8.27;97.34;100591.69;5015443;28;20085;-67
2021/11/13 09:30:03;;;;;;;7.00;4.78;;;;;;;8.34;97.55;100586.78;5015522;28;20062;-66
2021/11/13 09:32:30;;;;;;;5.57;4.63;;;;;;;8.34;97.54;100586.78;5015558;28;20074;-66
2021/11/13 09:34:56;;;;;;;5.03;3.88;;;;;;;8.41;97.29;100595.66;5015299;28;20058;-66
2021/11/13 09:37:23;;;;;;;5.18;3.78;;;;;;;8.48;97.03;100602.78;5015309;28;20058;-66
2021/11/13 09:39:51;;;;;;;4.80;3.80;;;;;;;8.59;97.05;100602.59;5015521;28;20070;-66
2021/11/13 09:42:19;;;;;;;4.95;4.35;;;;;;;8.58;97.11;100606.16;5015610;28;20084;-66
2021/11/13 09:44:46;;;;;;;17.25;15.15;;;;;;;8.74;97.03;100602.13;5015382;28;20405;-66
2021/11/13 09:47:14;;;;;;;20.88;13.45;;;;;;;8.82;96.48;100608.25;5015187;28;20078;-67
2021/11/13 09:49:41;;;;;;;9.45;4.55;;;;;;;8.80;96.46;100602.34;5015451;28;20085;-66
2021/11/13 09:52:09;;;;;;;6.72;4.28;;;;;;;8.79;96.39;100603.31;5015380;28;20100;-66
2021/11/13 09:54:36;;;;;;;13.02;11.73;;;;;;;8.92;96.42;100603.81;5015655;28;20460;-66
2021/11/13 09:57:03;;;;;;;18.58;15.90;;;;;;;8.92;96.44;100608.22;5015540;28;20054;-66
2021/11/13 09:59:30;;;;;;;10.80;9.18;;;;;;;9.02;96.16;100608.13;5014974;28;20089;-66
2021/11/13 10:01:57;;;;;;;8.50;5.30;;;;;;;9.05;96.05;100611.28;5014869;28;20496;-66
2021/11/13 10:04:25;;;;;;;6.07;4.60;;;;;;;9.10;96.31;100613.44;5015201;28;20046;-66
2021/11/13 10:06:52;;;;;;;6.70;4.60;;;;;;;8.99;96.58;100611.84;5014792;28;20108;-66
2021/11/13 10:09:20;;;;;;;9.93;4.40;;;;;;;9.16;96.43;100597.19;5014713;28;20108;-66
2021/11/13 10:11:49;;;;;;;7.03;4.53;;;;;;;9.22;95.94;100599.22;5015338;28;20061;-67
2021/11/13 10:14:15;;;;;;;6.03;4.80;;;;;;;9.25;96.20;100598.94;5015403;28;20117;-66
2021/11/13 10:16:46;;;;;;;11.40;9.15;;;;;;;9.36;95.91;100588.28;5014503;28;20107;-67
2021/11/13 10:19:15;;;;;;;8.50;6.47;;;;;;;9.39;96.07;100595.00;5014748;28;20168;-67
2021/11/13 10:21:47;;;;;;;8.15;5.22;;;;;;;9.39;96.14;100593.19;5015004;28;20112;-67
2021/11/13 10:24:17;;;;;;;6.47;5.63;;;;;;;9.48;96.21;100589.66;5015133;28;20046;-66
2021/11/13 10:26:45;;;;;;;5.95;4.45;;;;;;;9.42;95.93;100585.06;5014512;28;20355;-66
2021/11/13 10:29:15;;;;;;;7.65;5.10;;;;;;;9.53;95.81;100586.59;5014512;28;20077;-66
2021/11/13 10:31:44;;;;;;;6.53;4.90;;;;;;;9.53;96.20;100594.44;5014639;28;20108;-66
2021/11/13 10:34:14;;;;;;;6.13;4.60;;;;;;;9.48;96.60;100589.66;5013776;28;20073;-66
2021/11/13 10:36:45;;;;;;;6.53;4.80;;;;;;;9.62;96.16;100580.47;5014133;28;20574;-66
2021/11/13 10:39:14;;;;;;;5.93;4.97;;;;;;;9.67;96.38;100577.41;5014436;28;20061;-66
2021/11/13 10:41:46;;;;;;;5.40;4.80;;;;;;;9.74;96.19;100586.28;5031535;28;20463;-66
2021/11/13 10:44:13;;;;;;;7.00;4.95;;;;;;;9.74;95.94;100576.66;5023947;28;20129;-66
2021/11/13 10:46:43;;;;;;;8.02;5.40;;;;;;;9.82;96.38;100573.28;5024699;28;20466;-66
2021/11/13 10:49:11;;;;;;;6.93;5.50;;;;;;;10.00;96.03;100568.81;5023485;28;20057;-66
2021/11/13 10:51:39;;;;;;;8.90;5.57;;;;;;;10.15;95.77;100571.69;5025412;28;20145;-66
2021/11/13 10:54:13;;;;;;;8.15;5.72;;;;;;;10.27;95.40;100583.56;5024411;28;20072;-66
2021/11/13 10:56:45;;;;;;;8.45;5.78;;;;;;;10.24;94.61;100582.09;5025145;28;20049;-66
2021/11/13 10:59:12;;;;;;;9.05;5.82;;;;;;;10.27;95.16;100578.34;5020731;28;20448;-66
2021/11/13 11:01:41;;;;;;;6.68;5.15;;;;;;;10.11;95.16;100578.22;5027457;28;20124;-67
2021/11/13 11:04:11;;;;;;;9.30;5.75;;;;;;;10.10;95.26;100572.16;5033600;28;20041;-67
2021/11/13 11:06:41;;;;;;;6.32;5.53;;;;;;;10.11;95.60;100576.41;5033086;28;20120;-67
2021/11/13 11:09:24;;;;;;;8.00;6.05;;;;;;;10.21;95.39;100582.41;5033356;28;20133;-67
2021/11/13 11:11:52;;;;;;;7.68;5.85;;;;;;;10.20;95.44;100586.00;5030985;28;20071;-66
2021/11/13 11:14:21;;;;;;;8.00;6.97;;;;;;;10.20;94.98;100586.00;5033328;28;20045;-66
2021/11/13 11:16:51;;;;;;;7.97;6.57;;;;;;;10.20;95.08;100586.00;5033152;28;20064;-66
2021/11/13 11:19:20;;;;;;;9.25;7.35;;;;;;;10.23;95.07;100585.69;5028494;28;20140;-66
2021/11/13 11:21:50;;;;;;;9.13;6.53;;;;;;;10.20;95.20;100582.56;5033096;28;20083;-66